createdAt,value
2022-11-26T00:00:15.833Z,13.50
2022-11-26T00:02:47.538Z,13.60
2022-11-26T00:05:18.542Z,13.60
2022-11-26T00:07:56.562Z,13.30
2022-11-26T00:10:31.026Z,13.30
2022-11-26T00:13:02.487Z,13.20
2022-11-26T00:15:35.562Z,13.40
2022-11-26T00:18:06.453Z,13.30
2022-11-26T00:20:37.392Z,13.50
2022-11-26T00:23:20.311Z,13.10
2022-11-26T00:25:55.813Z,13.30
2022-11-26T00:28:36.095Z,13.20
2022-11-26T00:31:15.575Z,13.20
2022-11-26T00:33:46.910Z,13.10
2022-11-26T00:36:26.480Z,13.00
2022-11-26T00:39:03.625Z,13.10
2022-11-26T00:41:40.760Z,13.20
2022-11-26T00:44:24.622Z,12.90
2022-11-26T00:46:55.720Z,13.00
2022-11-26T00:49:28.708Z,13.10
2022-11-26T00:51:59.698Z,13.10
2022-11-26T00:54:30.662Z,13.10
2022-11-26T00:57:01.492Z,13.00
2022-11-26T00:59:32.331Z,13.10
2022-11-26T01:02:03.192Z,13.10
2022-11-26T01:04:34.945Z,13.10
2022-11-26T01:07:06.031Z,13.20
2022-11-26T01:09:37.101Z,13.20
2022-11-26T01:12:14.748Z,13.10
2022-11-26T01:14:45.641Z,13.30
2022-11-26T01:17:16.619Z,13.30
2022-11-26T01:19:47.470Z,13.50
2022-11-26T01:22:23.498Z,13.40
2022-11-26T01:24:54.391Z,13.20
2022-11-26T01:27:25.570Z,13.20
2022-11-26T01:29:56.458Z,13.20
2022-11-26T01:32:29.554Z,13.20
2022-11-26T01:35:00.635Z,13.20
2022-11-26T01:37:31.506Z,13.20
2022-11-26T01:40:02.476Z,13.20
2022-11-26T01:42:45.404Z,13.30
2022-11-26T01:45:22.589Z,13.30
2022-11-26T01:47:53.664Z,13.20
2022-11-26T01:50:34.203Z,13.60
2022-11-26T01:53:30.402Z,13.60
2022-11-26T01:56:37.232Z,13.90
2022-11-26T01:59:30.233Z,13.30
2022-11-26T02:02:01.657Z,13.50
2022-11-26T02:05:09.713Z,13.50
2022-11-26T02:07:41.080Z,13.50
2022-11-26T02:10:14.202Z,13.80
2022-11-26T02:12:45.758Z,13.70
2022-11-26T02:15:16.773Z,13.30
2022-11-26T02:18:04.584Z,13.60
2022-11-26T02:20:52.213Z,13.20
2022-11-26T02:23:47.850Z,13.10
2022-11-26T02:26:43.228Z,13.10
2022-11-26T02:29:56.478Z,13.20
2022-11-26T02:32:47.369Z,13.20
2022-11-26T02:35:24.728Z,13.20
2022-11-26T02:38:03.391Z,13.20
2022-11-26T02:40:34.283Z,13.20
2022-11-26T02:43:05.203Z,13.10
2022-11-26T02:45:41.235Z,13.10
2022-11-26T02:48:20.442Z,13.20
2022-11-26T02:50:59.671Z,13.30
2022-11-26T02:53:34.191Z,13.10
2022-11-26T02:56:26.393Z,13.30
2022-11-26T02:58:58.174Z,13.20
2022-11-26T03:01:59.449Z,13.30
2022-11-26T03:04:44.142Z,13.30
2022-11-26T03:07:16.046Z,13.10
2022-11-26T03:10:00.101Z,13.10
2022-11-26T03:12:31.090Z,13.20
2022-11-26T03:15:02.011Z,13.20
2022-11-26T03:17:33.078Z,13.10
2022-11-26T03:20:04.646Z,13.40
2022-11-26T03:22:35.958Z,13.40
2022-11-26T03:25:08.377Z,13.30
2022-11-26T03:27:39.231Z,13.60
2022-11-26T03:30:10.862Z,13.80
2022-11-26T03:32:41.733Z,13.20
2022-11-26T03:35:12.751Z,13.40
2022-11-26T03:37:43.912Z,13.30
2022-11-26T03:40:16.862Z,13.20
2022-11-26T03:42:47.826Z,13.00
2022-11-26T03:45:18.884Z,13.50
2022-11-26T03:47:50.007Z,13.60
2022-11-26T03:50:20.941Z,13.40
2022-11-26T03:52:51.857Z,13.30
2022-11-26T03:55:22.733Z,13.20
2022-11-26T03:57:53.775Z,13.10
2022-11-26T04:00:24.766Z,13.00
2022-11-26T04:02:55.806Z,12.90
2022-11-26T04:05:26.895Z,12.90
2022-11-26T04:07:57.769Z,12.80
2022-11-26T04:10:28.622Z,12.90
2022-11-26T04:12:59.504Z,13.00
2022-11-26T04:15:30.530Z,12.90
2022-11-26T04:18:01.395Z,12.90
2022-11-26T04:20:32.274Z,12.80
2022-11-26T04:23:03.098Z,12.90
2022-11-26T04:25:34.261Z,12.90
2022-11-26T04:28:05.211Z,12.90
2022-11-26T04:30:36.081Z,12.80
2022-11-26T04:33:06.947Z,12.80
2022-11-26T04:35:38.362Z,12.90
2022-11-26T04:38:09.439Z,12.90
2022-11-26T04:40:40.347Z,12.80
2022-11-26T04:43:11.207Z,13.00
2022-11-26T04:45:42.157Z,13.00
2022-11-26T04:48:13.017Z,12.90
2022-11-26T04:50:43.887Z,12.90
2022-11-26T04:53:14.901Z,13.10
2022-11-26T04:55:45.753Z,12.90
2022-11-26T04:58:18.508Z,12.90
2022-11-26T05:00:51.315Z,12.70
2022-11-26T05:03:22.239Z,12.80
2022-11-26T05:05:53.353Z,12.70
2022-11-26T05:08:24.223Z,12.60
2022-11-26T05:10:56.033Z,12.80
2022-11-26T05:13:27.080Z,12.70
2022-11-26T05:15:58.020Z,12.90
2022-11-26T05:18:29.211Z,12.80
2022-11-26T05:21:00.091Z,12.70
2022-11-26T05:23:31.028Z,12.50
2022-11-26T05:26:01.941Z,12.30
2022-11-26T05:28:32.886Z,12.30
2022-11-26T05:31:04.562Z,12.30
2022-11-26T05:33:35.412Z,12.20
2022-11-26T05:36:06.695Z,12.30
2022-11-26T05:38:37.622Z,12.30
2022-11-26T05:41:08.589Z,12.00
2022-11-26T05:43:39.447Z,11.90
2022-11-26T05:46:11.338Z,12.10
2022-11-26T05:48:42.559Z,12.00
2022-11-26T05:51:13.426Z,11.80
2022-11-26T05:53:44.460Z,11.80
2022-11-26T05:56:15.306Z,11.90
2022-11-26T05:58:46.232Z,12.00
2022-11-26T06:01:17.380Z,11.80
2022-11-26T06:03:48.315Z,11.80
2022-11-26T06:06:19.232Z,11.80
2022-11-26T06:08:50.309Z,11.80
2022-11-26T06:11:21.133Z,11.90
2022-11-26T06:13:52.040Z,12.10
2022-11-26T06:16:22.921Z,12.50
2022-11-26T06:18:53.837Z,12.40
2022-11-26T06:21:24.688Z,12.20
2022-11-26T06:23:59.607Z,12.00
2022-11-26T06:26:30.756Z,12.00
2022-11-26T06:29:01.659Z,11.80
2022-11-26T06:31:33.159Z,11.70
2022-11-26T06:34:04.103Z,11.60
2022-11-26T06:36:35.017Z,11.70
2022-11-26T06:39:05.938Z,11.80
2022-11-26T06:41:37.484Z,11.80
2022-11-26T06:44:08.392Z,11.90
2022-11-26T06:46:39.309Z,11.90
2022-11-26T06:49:10.946Z,12.10
2022-11-26T06:51:41.888Z,11.90
2022-11-26T06:54:12.763Z,11.80
2022-11-26T06:56:43.662Z,12.00
2022-11-26T06:59:14.638Z,11.80
2022-11-26T07:01:45.506Z,11.70
2022-11-26T07:04:16.707Z,11.70
2022-11-26T07:06:47.582Z,11.80
2022-11-26T07:09:18.439Z,11.60
2022-11-26T07:11:50.129Z,11.60
2022-11-26T07:14:22.495Z,11.70
2022-11-26T07:16:53.324Z,11.60
2022-11-26T07:19:24.740Z,12.10
2022-11-26T07:21:55.581Z,12.00
2022-11-26T07:24:26.475Z,11.80
2022-11-26T07:26:57.326Z,11.80
2022-11-26T07:29:28.425Z,11.80
2022-11-26T07:31:59.396Z,11.70
2022-11-26T07:34:30.294Z,11.90
2022-11-26T07:37:01.515Z,12.00
2022-11-26T07:39:32.467Z,12.10
2022-11-26T07:42:03.486Z,12.10
2022-11-26T07:44:34.337Z,12.20
2022-11-26T07:47:05.585Z,12.30
2022-11-26T07:49:37.234Z,12.40
2022-11-26T07:52:08.189Z,12.50
2022-11-26T07:54:39.242Z,12.20
2022-11-26T07:57:11.137Z,12.20
2022-11-26T07:59:42.038Z,12.30
2022-11-26T08:02:15.351Z,12.70
2022-11-26T08:04:46.471Z,12.80
2022-11-26T08:07:23.271Z,13.10
2022-11-26T08:09:58.524Z,12.80
2022-11-26T08:12:29.378Z,12.70
2022-11-26T08:15:00.614Z,12.90
2022-11-26T08:17:31.444Z,13.00
2022-11-26T08:20:02.362Z,13.30
2022-11-26T08:22:33.254Z,13.10
2022-11-26T08:25:04.543Z,13.00
2022-11-26T08:27:35.644Z,14.40
2022-11-26T08:30:07.945Z,13.80
2022-11-26T08:32:38.810Z,13.70
2022-11-26T08:35:09.749Z,13.70
2022-11-26T08:37:42.537Z,13.30
2022-11-26T08:40:14.559Z,13.60
2022-11-26T08:42:45.386Z,13.50
2022-11-26T08:45:16.410Z,13.50
2022-11-26T08:47:47.263Z,13.40
2022-11-26T08:50:20.719Z,13.10
2022-11-26T08:52:51.575Z,12.90
2022-11-26T08:55:24.016Z,12.90
2022-11-26T08:57:57.873Z,13.20
2022-11-26T09:00:28.835Z,13.20
2022-11-26T09:03:00.420Z,13.20
2022-11-26T09:05:31.918Z,13.40
2022-11-26T09:08:02.897Z,13.40
2022-11-26T09:10:33.759Z,13.60
2022-11-26T09:13:04.676Z,14.00
2022-11-26T09:15:37.573Z,14.20
2022-11-26T09:18:08.423Z,14.10
2022-11-26T09:20:39.299Z,14.20
2022-11-26T09:23:10.787Z,14.20
2022-11-26T09:25:41.641Z,14.70
2022-11-26T09:28:12.505Z,14.40
2022-11-26T09:30:43.482Z,14.40
2022-11-26T09:33:14.365Z,14.20
2022-11-26T09:35:45.229Z,14.20
2022-11-26T09:38:16.108Z,14.20
2022-11-26T09:40:56.329Z,14.00
2022-11-26T09:44:10.585Z,14.40
2022-11-26T09:47:12.756Z,14.20
2022-11-26T09:50:17.375Z,14.20
2022-11-26T09:53:02.156Z,14.00
2022-11-26T09:55:36.237Z,14.30
2022-11-26T09:58:42.300Z,14.50
2022-11-26T10:01:21.126Z,14.50
2022-11-26T10:03:52.826Z,14.70
2022-11-26T10:06:38.660Z,14.70
2022-11-26T10:09:56.606Z,14.70
2022-11-26T10:16:18.957Z,15.70
2022-11-26T10:19:23.323Z,15.80
2022-11-26T10:21:59.848Z,16.10
2022-11-26T10:24:41.934Z,16.10
2022-11-26T10:27:18.318Z,15.90
2022-11-26T10:29:56.955Z,16.30
2022-11-26T10:32:44.168Z,16.80
2022-11-26T10:35:27.193Z,16.00
2022-11-26T10:37:58.918Z,15.60
2022-11-26T10:40:32.599Z,15.50
2022-11-26T10:43:08.295Z,16.40
2022-11-26T10:45:50.021Z,16.50
2022-11-26T10:48:33.663Z,16.70
2022-11-26T10:51:16.683Z,15.80
2022-11-26T10:53:55.509Z,15.50
2022-11-26T10:56:42.387Z,15.60
2022-11-26T10:59:29.070Z,15.90
2022-11-26T11:02:31.827Z,16.00
2022-11-26T11:05:08.216Z,16.60
2022-11-26T11:07:42.814Z,17.20
2022-11-26T11:10:19.038Z,16.70
2022-11-26T11:12:59.946Z,16.70
2022-11-26T11:15:35.374Z,16.70
2022-11-26T11:18:23.143Z,16.80
2022-11-26T11:21:01.917Z,16.80
2022-11-26T11:24:07.303Z,17.20
2022-11-26T11:26:44.653Z,17.30
2022-11-26T11:29:32.916Z,17.10
2022-11-26T11:32:07.472Z,17.40
2022-11-26T11:34:44.816Z,17.80
2022-11-26T11:37:21.878Z,17.30
2022-11-26T11:40:17.011Z,17.60
2022-11-26T11:43:02.131Z,17.40
2022-11-26T11:45:40.956Z,17.50
2022-11-26T11:48:43.444Z,17.50
2022-11-26T11:51:36.089Z,17.30
2022-11-26T11:54:32.843Z,18.10
2022-11-26T11:57:48.767Z,18.20
2022-11-26T12:00:41.711Z,18.20
2022-11-26T12:04:07.196Z,17.80
2022-11-26T12:07:25.064Z,17.80
2022-11-26T12:10:10.544Z,17.90
2022-11-26T12:12:48.403Z,18.00
2022-11-26T12:15:38.159Z,18.40
2022-11-26T12:18:58.716Z,18.20
2022-11-26T12:22:07.301Z,18.50
2022-11-26T12:25:01.589Z,18.30
2022-11-26T12:27:44.940Z,18.40
2022-11-26T12:30:28.531Z,17.40
2022-11-26T12:33:34.274Z,17.40
2022-11-26T12:36:22.486Z,17.20
2022-11-26T12:38:59.681Z,17.30
2022-11-26T12:41:55.683Z,18.80
2022-11-26T12:44:37.481Z,18.70
2022-11-26T12:47:44.710Z,18.20
2022-11-26T12:50:25.113Z,18.20
2022-11-26T12:53:38.402Z,18.10
2022-11-26T12:56:34.831Z,18.30
2022-11-26T12:59:18.401Z,18.10
2022-11-26T13:01:52.537Z,17.90
2022-11-26T13:04:38.341Z,17.70
2022-11-26T13:08:02.314Z,18.30
2022-11-26T13:11:35.904Z,18.10
2022-11-26T13:14:41.286Z,18.30
2022-11-26T13:17:18.776Z,18.60
2022-11-26T13:20:14.337Z,18.70
2022-11-26T13:23:01.413Z,18.30
2022-11-26T13:25:42.923Z,18.40
2022-11-26T13:28:33.011Z,18.30
2022-11-26T13:31:34.141Z,18.20
2022-11-26T13:34:58.643Z,17.20
2022-11-26T13:37:57.282Z,17.70
2022-11-26T13:40:54.769Z,17.20
2022-11-26T13:44:35.874Z,17.00
2022-11-26T13:47:18.073Z,16.90
2022-11-26T13:50:12.506Z,16.80
2022-11-26T13:53:06.282Z,16.80
2022-11-26T13:55:47.366Z,16.60
2022-11-26T13:58:36.379Z,16.70
2022-11-26T14:01:40.349Z,16.60
2022-11-26T14:04:17.702Z,16.70
2022-11-26T14:07:11.839Z,16.50
2022-11-26T14:09:42.768Z,16.30
2022-11-26T14:12:19.073Z,16.40
2022-11-26T14:14:52.822Z,16.50
2022-11-26T14:17:32.517Z,16.90
2022-11-26T14:20:07.070Z,16.50
2022-11-26T14:22:38.754Z,16.40
2022-11-26T14:25:12.943Z,16.20
2022-11-26T14:27:55.283Z,16.10
2022-11-26T14:30:32.358Z,15.90
2022-11-26T14:33:15.276Z,16.00
2022-11-26T14:35:56.229Z,16.00
2022-11-26T14:38:31.444Z,15.80
2022-11-26T14:41:02.444Z,15.70
2022-11-26T14:43:34.732Z,15.60
2022-11-26T14:46:12.568Z,15.70
2022-11-26T14:48:48.193Z,15.80
2022-11-26T14:51:25.500Z,15.70
2022-11-26T14:53:57.023Z,15.70
2022-11-26T14:56:32.289Z,15.50
2022-11-26T14:59:04.666Z,15.70
2022-11-26T15:01:42.776Z,15.60
2022-11-26T15:04:42.267Z,15.30
2022-11-26T15:07:29.879Z,15.20
2022-11-26T15:10:21.667Z,15.20
2022-11-26T15:12:57.964Z,15.10
2022-11-26T15:15:28.873Z,15.20
2022-11-26T15:18:06.295Z,15.10
2022-11-26T15:20:41.206Z,15.10
2022-11-26T15:23:17.900Z,14.90
2022-11-26T15:25:52.242Z,14.80
2022-11-26T15:28:23.787Z,14.80
2022-11-26T15:31:01.910Z,14.80
2022-11-26T15:33:37.810Z,14.70
2022-11-26T15:36:15.927Z,14.60
2022-11-26T15:39:06.571Z,14.30
2022-11-26T15:41:42.729Z,14.20
2022-11-26T15:44:24.155Z,14.40
2022-11-26T15:46:57.393Z,14.10
2022-11-26T15:49:39.506Z,14.30
2022-11-26T15:52:13.562Z,14.00
2022-11-26T15:55:13.639Z,13.90
2022-11-26T15:57:52.240Z,13.90
2022-11-26T16:00:31.445Z,13.90
2022-11-26T16:03:03.398Z,13.90
2022-11-26T16:05:38.792Z,13.80
2022-11-26T16:08:30.409Z,13.60
2022-11-26T16:11:04.241Z,13.60
2022-11-26T16:13:36.222Z,13.40
2022-11-26T16:16:18.838Z,13.60
2022-11-26T16:19:01.221Z,13.50
2022-11-26T16:21:34.704Z,13.20
2022-11-26T16:24:30.781Z,13.20
2022-11-26T16:27:18.351Z,13.20
2022-11-26T16:29:49.369Z,13.10
2022-11-26T16:32:20.767Z,13.20
2022-11-26T16:34:51.683Z,13.30
2022-11-26T16:37:29.264Z,13.10
2022-11-26T16:40:04.402Z,13.10
2022-11-26T16:42:35.330Z,13.00
2022-11-26T16:45:07.402Z,12.70
2022-11-26T16:47:46.307Z,12.70
2022-11-26T16:50:20.805Z,12.50
2022-11-26T16:52:53.574Z,12.80
2022-11-26T16:55:26.537Z,12.90
2022-11-26T16:58:00.238Z,12.60
2022-11-26T17:00:31.721Z,12.60
2022-11-26T17:03:02.721Z,12.60
2022-11-26T17:05:41.437Z,12.80
2022-11-26T17:08:12.862Z,12.80
2022-11-26T17:10:45.035Z,12.70
2022-11-26T17:13:20.594Z,12.60
2022-11-26T17:15:51.861Z,12.70
2022-11-26T17:18:25.383Z,12.30
2022-11-26T17:20:59.413Z,12.40
2022-11-26T17:23:33.601Z,12.40
2022-11-26T17:26:21.100Z,12.40
2022-11-26T17:28:55.018Z,12.10
2022-11-26T17:31:26.218Z,12.00
2022-11-26T17:33:59.516Z,12.10
2022-11-26T17:36:36.456Z,12.10
2022-11-26T17:39:10.026Z,12.10
2022-11-26T17:41:44.553Z,12.00
2022-11-26T17:44:15.415Z,11.90
2022-11-26T17:47:09.468Z,11.70
2022-11-26T17:49:39.450Z,11.80
2022-11-26T17:52:29.713Z,11.50
2022-11-26T17:55:00.649Z,11.40
2022-11-26T17:57:31.525Z,11.30
2022-11-26T18:00:08.475Z,11.20
2022-11-26T18:02:39.394Z,10.90
2022-11-26T18:05:11.379Z,11.00
2022-11-26T18:07:43.014Z,11.00
2022-11-26T18:10:19.819Z,11.00
2022-11-26T18:12:54.088Z,11.00
2022-11-26T18:15:28.503Z,11.10
2022-11-26T18:18:00.547Z,11.30
2022-11-26T18:20:34.703Z,10.80
2022-11-26T18:23:11.494Z,11.70
2022-11-26T18:25:42.426Z,12.30
2022-11-26T18:28:20.777Z,11.70
2022-11-26T18:30:58.563Z,11.30
2022-11-26T18:33:29.441Z,11.00
2022-11-26T18:36:00.309Z,11.10
2022-11-26T18:38:33.155Z,10.90
2022-11-26T18:41:05.669Z,11.00
2022-11-26T18:43:38.890Z,10.60
2022-11-26T18:46:17.500Z,10.70
2022-11-26T18:48:51.730Z,10.50
2022-11-26T18:51:23.046Z,10.70
2022-11-26T18:53:54.151Z,10.70
2022-11-26T18:56:25.468Z,10.80
2022-11-26T18:58:59.507Z,10.50
2022-11-26T19:01:34.425Z,10.40
2022-11-26T19:04:05.883Z,10.70
2022-11-26T19:06:40.843Z,10.50
2022-11-26T19:09:20.297Z,10.40
2022-11-26T19:11:58.313Z,10.60
2022-11-26T19:14:29.260Z,10.60
2022-11-26T19:17:03.323Z,10.60
2022-11-26T19:19:35.088Z,10.40
2022-11-26T19:22:08.294Z,10.30
2022-11-26T19:24:39.141Z,10.10
2022-11-26T19:27:11.436Z,10.50
2022-11-26T19:29:42.439Z,10.50
2022-11-26T19:32:13.444Z,10.40
2022-11-26T19:34:44.313Z,10.30
2022-11-26T19:37:17.875Z,10.20
2022-11-26T19:39:48.751Z,10.30
2022-11-26T19:42:19.589Z,10.10
2022-11-26T19:44:53.072Z,10.10
2022-11-26T19:47:23.943Z,10.20
2022-11-26T19:49:54.854Z,10.30
2022-11-26T19:52:25.691Z,10.10
2022-11-26T19:54:56.645Z,10.20
2022-11-26T19:57:29.896Z,10.30
2022-11-26T20:00:00.761Z,10.00
2022-11-26T20:02:32.165Z,10.10
2022-11-26T20:05:04.880Z,10.10
2022-11-26T20:07:36.267Z,9.80
2022-11-26T20:10:08.187Z,9.80
2022-11-26T20:12:39.054Z,9.60
2022-11-26T20:15:10.989Z,9.70
2022-11-26T20:17:41.843Z,9.60
2022-11-26T20:20:12.930Z,9.40
2022-11-26T20:22:43.859Z,9.60
2022-11-26T20:25:17.967Z,9.60
2022-11-26T20:27:49.074Z,9.30
2022-11-26T20:30:20.301Z,11.10
2022-11-26T20:32:51.751Z,10.70
2022-11-26T20:35:23.581Z,10.20
2022-11-26T20:37:57.515Z,9.60
2022-11-26T20:40:29.187Z,9.70
2022-11-26T20:43:03.427Z,9.60
2022-11-26T20:45:35.477Z,9.60
2022-11-26T20:48:06.587Z,9.60
2022-11-26T20:50:38.073Z,9.70
2022-11-26T20:53:08.909Z,9.60
2022-11-26T20:55:39.765Z,10.40
2022-11-26T20:58:11.335Z,10.50
2022-11-26T21:00:45.858Z,10.10
2022-11-26T21:03:25.890Z,9.60
2022-11-26T21:06:02.349Z,9.60
2022-11-26T21:08:33.928Z,9.70
2022-11-26T21:11:06.684Z,9.80
2022-11-26T21:13:45.089Z,10.00
2022-11-26T21:16:16.660Z,10.00
2022-11-26T21:18:47.632Z,10.10
2022-11-26T21:21:19.366Z,10.20
2022-11-26T21:23:51.016Z,10.20
2022-11-26T21:26:25.783Z,10.60
2022-11-26T21:28:58.840Z,10.80
2022-11-26T21:31:31.720Z,11.30
2022-11-26T21:34:06.399Z,11.10
2022-11-26T21:36:37.465Z,11.30
2022-11-26T21:39:08.796Z,11.30
2022-11-26T21:41:39.645Z,11.10
2022-11-26T21:44:11.445Z,11.30
2022-11-26T21:46:44.700Z,11.10
2022-11-26T21:49:15.628Z,11.40
2022-11-26T21:51:46.538Z,11.30
2022-11-26T21:54:17.660Z,10.80
2022-11-26T21:56:48.644Z,11.20
2022-11-26T21:59:28.350Z,11.30
2022-11-26T22:02:00.475Z,11.40
2022-11-26T22:04:31.600Z,11.00
2022-11-26T22:07:02.720Z,11.20
2022-11-26T22:09:33.750Z,11.40
2022-11-26T22:12:08.301Z,11.10
2022-11-26T22:14:39.207Z,11.10
2022-11-26T22:17:10.096Z,11.20
2022-11-26T22:19:41.365Z,11.30
2022-11-26T22:22:12.573Z,11.30
2022-11-26T22:24:43.685Z,11.40
2022-11-26T22:27:14.526Z,11.30
2022-11-26T22:29:45.405Z,11.20
2022-11-26T22:32:16.300Z,11.40
2022-11-26T22:34:47.194Z,11.70
2022-11-26T22:37:18.415Z,11.60
2022-11-26T22:39:53.711Z,11.60
2022-11-26T22:42:28.057Z,11.40
2022-11-26T22:45:00.336Z,10.90
2022-11-26T22:47:31.339Z,11.10
2022-11-26T22:50:02.170Z,11.40
2022-11-26T22:52:33.098Z,11.10
2022-11-26T22:55:04.347Z,10.90
2022-11-26T22:57:35.700Z,10.80
2022-11-26T23:00:13.705Z,10.80
2022-11-26T23:02:44.769Z,10.80
2022-11-26T23:05:15.791Z,10.90
2022-11-26T23:07:46.754Z,10.50
2022-11-26T23:10:17.694Z,10.70
2022-11-26T23:12:48.603Z,11.00
2022-11-26T23:15:19.500Z,10.70
2022-11-26T23:17:50.349Z,10.80
2022-11-26T23:20:21.830Z,10.90
2022-11-26T23:22:53.480Z,10.60
2022-11-26T23:25:24.401Z,10.50
2022-11-26T23:27:55.659Z,10.40
2022-11-26T23:30:26.959Z,9.80
2022-11-26T23:32:57.924Z,9.90
2022-11-26T23:35:28.814Z,10.10
2022-11-26T23:37:59.709Z,10.40
2022-11-26T23:40:30.632Z,10.10
2022-11-26T23:43:05.906Z,9.80
2022-11-26T23:45:39.221Z,10.20
2022-11-26T23:48:10.109Z,10.00
2022-11-26T23:50:41.441Z,10.10
2022-11-26T23:53:12.278Z,10.20
2022-11-26T23:55:43.128Z,9.80
2022-11-26T23:58:13.982Z,9.90
